Kimberly Turecamo — WDC6838 — position and weather

sailwx.info

Track history (hours):
 
Tides and Currents Weather Stations Pressure Air Temp Water Temp Dewpoint Dewpoint Depression Visibility Wind Speed Wind Dir Waves Ship Positions

Kimberly Turecamo

Owner: Moran Towing Corporation, New Canaan, CT. More information available from US FCC via Universal Licensing System and Coast Guard Vessel Documentation Center.

Last reported at 2016-Jul-26 13:33 UTC. Time now 2016-Jul-26 14:14 UTC.
Position N 40°43' W 073°59'.

Length 31 m; draft 5 m.

Type: Tug. MMSI: 367061980.

Date/timePositionNaut miles runAvg speedWind from/ knotsBaromVisibWave heightAir tempDewpointWater temp
2016-Jul-26 13:33N 40°43' W 073°59'2 2.4
2016-Jul-26 12:33N 40°41' W 074°02'5 5.2
2016-Jul-26 11:33N 40°38' W 074°08'0 0.0
2016-Jul-26 10:33N 40°38' W 074°08'1 1.2
2016-Jul-26 09:34N 40°39' W 074°09'4 4.2
2016-Jul-26 08:34N 40°38' W 074°03'3 3.0
2016-Jul-26 07:24N 40°38' W 074°08'0 0.0
2016-Jul-26 06:30N 40°38' W 074°08'0 0.0
2016-Jul-26 05:33N 40°38' W 074°08'0 0.0
2016-Jul-26 04:15N 40°38' W 074°08'0 0.0
2016-Jul-26 03:33N 40°38' W 074°08'4 3.9
2016-Jul-26 02:30N 40°39' W 074°02'0 0.0
2016-Jul-26 01:30N 40°39' W 074°02'0 0.1
2016-Jul-26 00:33N 40°39' W 074°02'0 0.0
2016-Jul-25 23:33N 40°39' W 074°02'0 0.0
2016-Jul-25 22:33N 40°39' W 074°02'0 0.0
2016-Jul-25 21:33N 40°39' W 074°02'0 0.1
2016-Jul-25 20:33N 40°39' W 074°03'4 1.8
2016-Jul-25 18:22N 40°38' W 074°08'0 0.0
2016-Jul-25 17:28N 40°38' W 074°08'0 0.0
2016-Jul-25 16:25N 40°38' W 074°08'0 0.0
2016-Jul-25 15:28N 40°38' W 074°08'0 0.0
2016-Jul-25 14:28N 40°38' W 074°08'0 0.0
2016-Jul-25 11:21N 40°38' W 074°08'2 1.8
2016-Jul-25 10:30N 40°40' W 074°08'2 2.6
2016-Jul-25 09:33N 40°39' W 074°05'1 1.0
2016-Jul-25 08:33N 40°39' W 074°07'1 0.8
2016-Jul-25 07:29N 40°38' W 074°08'0 0.0
2016-Jul-25 06:26N 40°38' W 074°08'0 0.0
2016-Jul-25 03:29N 40°38' W 074°08'0 0.0
2016-Jul-25 00:25N 40°38' W 074°08'0 0.0
2016-Jul-24 23:31N 40°38' W 074°08'0 0.0
2016-Jul-24 21:31N 40°38' W 074°08'0 0.0
2016-Jul-24 17:31N 40°38' W 074°08'0 0.0
2016-Jul-24 16:21N 40°38' W 074°08'0 0.0
2016-Jul-24 15:33N 40°38' W 074°08'0 0.0
2016-Jul-24 14:32N 40°38' W 074°08'0 0.0
2016-Jul-24 13:32N 40°38' W 074°08'3 3.2
2016-Jul-24 12:34N 40°39' W 074°04'2 2.3
2016-Jul-24 11:32N 40°39' W 074°07'0 0.2
2016-Jul-24 10:33N 40°39' W 074°07'1 0.7
2016-Jul-24 09:31N 40°38' W 074°08'0 0.0
2016-Jul-24 08:33N 40°38' W 074°08'0 0.0
2016-Jul-24 07:33N 40°38' W 074°08'0 0.0
2016-Jul-24 06:34N 40°38' W 074°08'1 1.1
2016-Jul-24 05:33N 40°39' W 074°06'2 1.9
2016-Jul-24 04:34N 40°39' W 074°04'3 1.2
2016-Jul-24 02:13N 40°38' W 074°08'0 0.0
2016-Jul-24 00:33N 40°38' W 074°08'0 0.0
2016-Jul-23 23:29N 40°38' W 074°08'1 0.8
2016-Jul-23 22:33N 40°39' W 074°07'1 1.2
2016-Jul-23 21:34N 40°39' W 074°05'2 1.9
2016-Jul-23 20:33N 40°38' W 074°08'0 0.0
2016-Jul-23 19:32N 40°38' W 074°08'0 0.0
2016-Jul-23 18:34N 40°38' W 074°08'0 0.0
2016-Jul-23 17:32N 40°38' W 074°08'0 0.0
2016-Jul-23 16:33N 40°38' W 074°08'0 0.0
2016-Jul-23 15:33N 40°38' W 074°08'0 0.0
2016-Jul-23 14:33N 40°38' W 074°08'0 0.0
2016-Jul-23 13:34N 40°38' W 074°08'0 0.0
2016-Jul-23 12:33N 40°38' W 074°08'0 0.0
2016-Jul-23 11:31N 40°38' W 074°08'0 0.0
2016-Jul-23 10:33N 40°38' W 074°08'0 0.0
2016-Jul-23 09:34N 40°38' W 074°08'0 0.0
2016-Jul-23 08:33N 40°38' W 074°08'0 0.0
2016-Jul-23 07:33N 40°38' W 074°08'0 0.0
2016-Jul-23 06:34N 40°38' W 074°08'0 0.0
2016-Jul-23 04:34N 40°38' W 074°08'0 0.0
2016-Jul-23 03:34N 40°38' W 074°08'2 2.2
2016-Jul-23 02:33N 40°39' W 074°05'2 2.4
2016-Jul-23 01:34N 40°41' W 074°03'6 5.7
2016-Jul-23 00:34N 40°46' W 074°00'1 1.0
2016-Jul-22 23:32N 40°47' W 073°60'0 0.0
2016-Jul-22 22:33N 40°47' W 073°60'0 0.0
2016-Jul-22 21:33N 40°47' W 073°60'0 0.0
2016-Jul-22 20:33N 40°47' W 073°60'0 0.0
2016-Jul-22 19:33N 40°47' W 073°60'0 0.1
2016-Jul-22 18:33N 40°47' W 073°60'0 0.1
2016-Jul-22 17:33N 40°47' W 073°60'0 0.0
2016-Jul-22 16:33N 40°47' W 073°60'0 0.0
2016-Jul-22 15:33N 40°47' W 073°60'0 0.0
2016-Jul-22 14:33N 40°47' W 073°60'0 0.0
2016-Jul-22 13:33N 40°47' W 073°60'0 0.1
2016-Jul-22 12:33N 40°47' W 073°60'0 0.1
2016-Jul-22 11:33N 40°47' W 073°60'0 0.0
2016-Jul-22 10:33N 40°47' W 073°60'0 0.0
2016-Jul-22 09:33N 40°47' W 073°60'0 0.1
2016-Jul-22 08:33N 40°47' W 073°60'2 1.7
2016-Jul-22 07:33N 40°45' W 074°01'9 3.1
2016-Jul-22 04:33N 40°39' W 074°09'1 1.0
2016-Jul-22 03:33N 40°38' W 074°08'0 0.0
2016-Jul-22 02:33N 40°38' W 074°08'0 0.0
2016-Jul-22 01:32N 40°38' W 074°08'0 0.0
2016-Jul-22 00:33N 40°38' W 074°08'3 2.8
2016-Jul-21 23:33N 40°39' W 074°11'3 0.5
2016-Jul-21 18:12N 40°36' W 074°12'4 6.6
2016-Jul-21 17:33N 40°38' W 074°08'0 0.0
2016-Jul-21 16:30N 40°38' W 074°08'0 0.0
2016-Jul-21 15:33N 40°38' W 074°08'0 0.0
2016-Jul-21 14:33N 40°38' W 074°08'0 0.0
2016-Jul-21 13:32N 40°38' W 074°08'0 0.0
2016-Jul-21 12:33N 40°38' W 074°08'4 3.5
2016-Jul-21 11:32N 40°38' W 074°12'4 4.4
2016-Jul-21 10:33N 40°39' W 074°07'5 5.3
2016-Jul-21 09:33N 40°41' W 074°01'3 3.2
2016-Jul-21 08:33N 40°39' W 074°04'3 2.3
2016-Jul-21 07:20N 40°38' W 074°08'0 0.0
2016-Jul-21 05:25N 40°38' W 074°08'0 0.0
2016-Jul-21 04:33N 40°38' W 074°08'5 1.3
2016-Jul-21 00:18N 40°34' W 074°13'5 7.1
2016-Jul-20 23:33N 40°39' W 074°08'0 0.4
2016-Jul-20 22:33N 40°38' W 074°08'0 0.0
2016-Jul-20 21:33N 40°38' W 074°08'1 0.8
2016-Jul-20 20:33N 40°39' W 074°07'0 0.0
2016-Jul-20 19:33N 40°39' W 074°07'1 1.5
2016-Jul-20 18:33N 40°39' W 074°05'2 2.1
2016-Jul-20 17:32N 40°39' W 074°08'0 0.1
2016-Jul-20 16:33N 40°38' W 074°08'0 0.0
2016-Jul-20 15:33N 40°38' W 074°08'0 0.0
2016-Jul-20 14:33N 40°38' W 074°08'0 0.0
2016-Jul-20 13:33N 40°38' W 074°08'0 0.0
2016-Jul-20 12:33N 40°38' W 074°08'2 2.4
2016-Jul-20 11:33N 40°39' W 074°05'1 1.3
2016-Jul-20 10:33N 40°38' W 074°03'3 3.4
2016-Jul-20 09:34N 40°38' W 074°08'0 0.0
2016-Jul-20 08:33N 40°38' W 074°08'0 0.0
2016-Jul-20 07:33N 40°38' W 074°08'0 0.0
2016-Jul-20 06:34N 40°38' W 074°08'0 0.0
2016-Jul-20 05:33N 40°38' W 074°08'2 2.0
2016-Jul-20 04:33N 40°40' W 074°08'1 0.9
2016-Jul-20 03:33N 40°41' W 074°09'2 2.5
2016-Jul-20 02:33N 40°39' W 074°09'1 0.8
2016-Jul-20 01:33N 40°38' W 074°08'0 0.0
2016-Jul-20 00:33N 40°38' W 074°08'0 0.0
2016-Jul-19 23:32N 40°38' W 074°08'0 0.2
2016-Jul-19 22:33N 40°39' W 074°08'3 2.7
2016-Jul-19 21:34N 40°41' W 074°09'0 0.1
2016-Jul-19 20:33N 40°41' W 074°09'1 1.1
2016-Jul-19 19:33N 40°40' W 074°08'2 1.7
2016-Jul-19 18:32N 40°38' W 074°08'0 0.0
2016-Jul-19 17:33N 40°38' W 074°08'0 0.0
2016-Jul-19 16:33N 40°38' W 074°08'0 0.0
2016-Jul-19 15:33N 40°38' W 074°08'4 4.5
2016-Jul-19 14:33N 40°40' W 074°02'2 2.4
2016-Jul-19 13:33N 40°42' W 074°02'6 6.0
2016-Jul-19 12:33N 40°48' W 073°59'0 0.2
2016-Jul-19 11:32N 40°48' W 073°59'0 0.2
2016-Jul-19 10:32N 40°48' W 073°59'0 0.0
2016-Jul-19 09:32N 40°48' W 073°59'0 0.0
2016-Jul-19 08:29N 40°48' W 073°59'0 0.0
2016-Jul-19 07:32N 40°48' W 073°59'6 2.1
2016-Jul-19 04:33N 40°42' W 074°02'6 6.3
2016-Jul-19 03:33N 40°39' W 074°09'3 2.4
2016-Jul-19 02:19N 40°38' W 074°12'4 4.6
2016-Jul-19 01:33N 40°38' W 074°08'0 0.0
2016-Jul-19 00:33N 40°38' W 074°08'1 0.7
2016-Jul-18 23:33N 40°39' W 074°07'3 3.1
2016-Jul-18 22:34N 40°39' W 074°03'4 4.0
2016-Jul-18 21:33N 40°39' W 074°08'0 0.3
2016-Jul-18 20:33N 40°38' W 074°08'3 1.6
2016-Jul-18 18:33N 40°38' W 074°12'6 5.9
2016-Jul-18 17:33N 40°39' W 074°04'3 2.6
2016-Jul-18 16:33N 40°38' W 074°08'0 0.0
2016-Jul-18 15:31N 40°38' W 074°08'0 0.0
2016-Jul-18 14:32N 40°38' W 074°08'4 3.6
2016-Jul-18 13:33N 40°42' W 074°09'1 0.8
2016-Jul-18 12:33N 40°41' W 074°08'3 2.9
2016-Jul-18 11:33N 40°39' W 074°06'5 4.7
2016-Jul-18 10:33N 40°41' W 074°01'3 2.9
2016-Jul-18 09:33N 40°39' W 074°03'4 3.7
2016-Jul-18 08:33N 40°38' W 074°08'3 3.4
2016-Jul-18 07:32N 40°38' W 074°12'5 5.0
2016-Jul-18 06:33N 40°39' W 074°06'3 3.0
2016-Jul-18 05:33N 40°40' W 074°02'0 0.0
2016-Jul-18 04:33N 40°40' W 074°02'0 0.0
2016-Jul-18 03:33N 40°40' W 074°02'0 0.0
2016-Jul-18 02:33N 40°40' W 074°02'0 0.0
2016-Jul-18 01:33N 40°40' W 074°02'9 4.2
2016-Jul-17 23:32N 40°36' W 074°12'4 4.0
2016-Jul-17 22:33N 40°39' W 074°08'1 0.2
2016-Jul-17 19:26N 40°38' W 074°08'0 0.0
2016-Jul-17 18:29N 40°38' W 074°08'0 0.0
2016-Jul-17 17:32N 40°38' W 074°08'3 3.2
2016-Jul-17 16:33N 40°38' W 074°04'3 2.4
2016-Jul-17 15:14N 40°38' W 074°08'0 0.0
2016-Jul-17 14:30N 40°38' W 074°08'0 0.0
2016-Jul-17 13:17N 40°38' W 074°08'0 0.0
2016-Jul-17 12:20N 40°38' W 074°08'0 0.0
2016-Jul-17 11:17N 40°38' W 074°08'0 0.0
2016-Jul-17 10:33N 40°38' W 074°08'0 0.0
2016-Jul-17 08:23N 40°38' W 074°08'0 0.0
2016-Jul-17 07:33N 40°38' W 074°08'0 0.0
2016-Jul-17 06:33N 40°38' W 074°08'0 0.0
2016-Jul-17 04:29N 40°38' W 074°08'0 0.0
2016-Jul-17 03:33N 40°38' W 074°08'4 4.4
2016-Jul-17 02:33N 40°40' W 074°02'3 2.9
2016-Jul-17 01:34N 40°42' W 074°00'8 0.8
2016-Jul-16 15:06N 40°48' W 073°53'4 7.1
2016-Jul-16 14:33N 40°46' W 073°57'7 7.0
2016-Jul-16 13:33N 40°40' W 074°02'  
Track history (hours):
 
Tides and Currents Weather Stations Pressure Air Temp Water Temp Dewpoint Dewpoint Depression Visibility Wind Speed Wind Dir Waves Ship Positions

Kimberly Turecamo

Owner: Moran Towing Corporation, New Canaan, CT. More information available from US FCC via Universal Licensing System and Coast Guard Vessel Documentation Center.

Last reported at 2016-Jul-26 13:33 UTC. Time now 2016-Jul-26 14:14 UTC.
Position N 40°43' W 073°59'.

Length 31 m; draft 5 m.

Type: Tug. MMSI: 367061980.

Date/timePositionNaut miles runAvg speedWind from/ knotsBaromVisibWave heightAir tempDewpointWater temp
2016-Jul-26 13:33N 40°43' W 073°59'2 2.4
2016-Jul-26 12:33N 40°41' W 074°02'5 5.2
2016-Jul-26 11:33N 40°38' W 074°08'0 0.0
2016-Jul-26 10:33N 40°38' W 074°08'1 1.2
2016-Jul-26 09:34N 40°39' W 074°09'4 4.2
2016-Jul-26 08:34N 40°38' W 074°03'3 3.0
2016-Jul-26 07:24N 40°38' W 074°08'0 0.0
2016-Jul-26 06:30N 40°38' W 074°08'0 0.0
2016-Jul-26 05:33N 40°38' W 074°08'0 0.0
2016-Jul-26 04:15N 40°38' W 074°08'0 0.0
2016-Jul-26 03:33N 40°38' W 074°08'4 3.9
2016-Jul-26 02:30N 40°39' W 074°02'0 0.0
2016-Jul-26 01:30N 40°39' W 074°02'0 0.1
2016-Jul-26 00:33N 40°39' W 074°02'0 0.0
2016-Jul-25 23:33N 40°39' W 074°02'0 0.0
2016-Jul-25 22:33N 40°39' W 074°02'0 0.0
2016-Jul-25 21:33N 40°39' W 074°02'0 0.1
2016-Jul-25 20:33N 40°39' W 074°03'4 1.8
2016-Jul-25 18:22N 40°38' W 074°08'0 0.0
2016-Jul-25 17:28N 40°38' W 074°08'0 0.0
2016-Jul-25 16:25N 40°38' W 074°08'0 0.0
2016-Jul-25 15:28N 40°38' W 074°08'0 0.0
2016-Jul-25 14:28N 40°38' W 074°08'0 0.0
2016-Jul-25 11:21N 40°38' W 074°08'2 1.8
2016-Jul-25 10:30N 40°40' W 074°08'2 2.6
2016-Jul-25 09:33N 40°39' W 074°05'1 1.0
2016-Jul-25 08:33N 40°39' W 074°07'1 0.8
2016-Jul-25 07:29N 40°38' W 074°08'0 0.0
2016-Jul-25 06:26N 40°38' W 074°08'0 0.0
2016-Jul-25 03:29N 40°38' W 074°08'0 0.0
2016-Jul-25 00:25N 40°38' W 074°08'0 0.0
2016-Jul-24 23:31N 40°38' W 074°08'0 0.0
2016-Jul-24 21:31N 40°38' W 074°08'0 0.0
2016-Jul-24 17:31N 40°38' W 074°08'0 0.0
2016-Jul-24 16:21N 40°38' W 074°08'0 0.0
2016-Jul-24 15:33N 40°38' W 074°08'0 0.0
2016-Jul-24 14:32N 40°38' W 074°08'0 0.0
2016-Jul-24 13:32N 40°38' W 074°08'3 3.2
2016-Jul-24 12:34N 40°39' W 074°04'2 2.3
2016-Jul-24 11:32N 40°39' W 074°07'0 0.2
2016-Jul-24 10:33N 40°39' W 074°07'1 0.7
2016-Jul-24 09:31N 40°38' W 074°08'0 0.0
2016-Jul-24 08:33N 40°38' W 074°08'0 0.0
2016-Jul-24 07:33N 40°38' W 074°08'0 0.0
2016-Jul-24 06:34N 40°38' W 074°08'1 1.1
2016-Jul-24 05:33N 40°39' W 074°06'2 1.9
2016-Jul-24 04:34N 40°39' W 074°04'3 1.2
2016-Jul-24 02:13N 40°38' W 074°08'0 0.0
2016-Jul-24 00:33N 40°38' W 074°08'0 0.0
2016-Jul-23 23:29N 40°38' W 074°08'1 0.8
2016-Jul-23 22:33N 40°39' W 074°07'1 1.2
2016-Jul-23 21:34N 40°39' W 074°05'2 1.9
2016-Jul-23 20:33N 40°38' W 074°08'0 0.0
2016-Jul-23 19:32N 40°38' W 074°08'0 0.0
2016-Jul-23 18:34N 40°38' W 074°08'0 0.0
2016-Jul-23 17:32N 40°38' W 074°08'0 0.0
2016-Jul-23 16:33N 40°38' W 074°08'0 0.0
2016-Jul-23 15:33N 40°38' W 074°08'0 0.0
2016-Jul-23 14:33N 40°38' W 074°08'0 0.0
2016-Jul-23 13:34N 40°38' W 074°08'0 0.0
2016-Jul-23 12:33N 40°38' W 074°08'0 0.0
2016-Jul-23 11:31N 40°38' W 074°08'0 0.0
2016-Jul-23 10:33N 40°38' W 074°08'0 0.0
2016-Jul-23 09:34N 40°38' W 074°08'0 0.0
2016-Jul-23 08:33N 40°38' W 074°08'0 0.0
2016-Jul-23 07:33N 40°38' W 074°08'0 0.0
2016-Jul-23 06:34N 40°38' W 074°08'0 0.0
2016-Jul-23 04:34N 40°38' W 074°08'0 0.0
2016-Jul-23 03:34N 40°38' W 074°08'2 2.2
2016-Jul-23 02:33N 40°39' W 074°05'2 2.4
2016-Jul-23 01:34N 40°41' W 074°03'6 5.7
2016-Jul-23 00:34N 40°46' W 074°00'1 1.0
2016-Jul-22 23:32N 40°47' W 073°60'0 0.0
2016-Jul-22 22:33N 40°47' W 073°60'0 0.0
2016-Jul-22 21:33N 40°47' W 073°60'0 0.0
2016-Jul-22 20:33N 40°47' W 073°60'0 0.0
2016-Jul-22 19:33N 40°47' W 073°60'0 0.1
2016-Jul-22 18:33N 40°47' W 073°60'0 0.1
2016-Jul-22 17:33N 40°47' W 073°60'0 0.0
2016-Jul-22 16:33N 40°47' W 073°60'0 0.0
2016-Jul-22 15:33N 40°47' W 073°60'0 0.0
2016-Jul-22 14:33N 40°47' W 073°60'0 0.0
2016-Jul-22 13:33N 40°47' W 073°60'0 0.1
2016-Jul-22 12:33N 40°47' W 073°60'0 0.1
2016-Jul-22 11:33N 40°47' W 073°60'0 0.0
2016-Jul-22 10:33N 40°47' W 073°60'0 0.0
2016-Jul-22 09:33N 40°47' W 073°60'0 0.1
2016-Jul-22 08:33N 40°47' W 073°60'2 1.7
2016-Jul-22 07:33N 40°45' W 074°01'9 3.1
2016-Jul-22 04:33N 40°39' W 074°09'1 1.0
2016-Jul-22 03:33N 40°38' W 074°08'0 0.0
2016-Jul-22 02:33N 40°38' W 074°08'0 0.0
2016-Jul-22 01:32N 40°38' W 074°08'0 0.0
2016-Jul-22 00:33N 40°38' W 074°08'3 2.8
2016-Jul-21 23:33N 40°39' W 074°11'3 0.5
2016-Jul-21 18:12N 40°36' W 074°12'4 6.6
2016-Jul-21 17:33N 40°38' W 074°08'0 0.0
2016-Jul-21 16:30N 40°38' W 074°08'0 0.0
2016-Jul-21 15:33N 40°38' W 074°08'0 0.0
2016-Jul-21 14:33N 40°38' W 074°08'0 0.0
2016-Jul-21 13:32N 40°38' W 074°08'0 0.0
2016-Jul-21 12:33N 40°38' W 074°08'4 3.5
2016-Jul-21 11:32N 40°38' W 074°12'4 4.4
2016-Jul-21 10:33N 40°39' W 074°07'5 5.3
2016-Jul-21 09:33N 40°41' W 074°01'3 3.2
2016-Jul-21 08:33N 40°39' W 074°04'3 2.3
2016-Jul-21 07:20N 40°38' W 074°08'0 0.0
2016-Jul-21 05:25N 40°38' W 074°08'0 0.0
2016-Jul-21 04:33N 40°38' W 074°08'5 1.3
2016-Jul-21 00:18N 40°34' W 074°13'5 7.1
2016-Jul-20 23:33N 40°39' W 074°08'0 0.4
2016-Jul-20 22:33N 40°38' W 074°08'0 0.0
2016-Jul-20 21:33N 40°38' W 074°08'1 0.8
2016-Jul-20 20:33N 40°39' W 074°07'0 0.0
2016-Jul-20 19:33N 40°39' W 074°07'1 1.5
2016-Jul-20 18:33N 40°39' W 074°05'2 2.1
2016-Jul-20 17:32N 40°39' W 074°08'0 0.1
2016-Jul-20 16:33N 40°38' W 074°08'0 0.0
2016-Jul-20 15:33N 40°38' W 074°08'0 0.0
2016-Jul-20 14:33N 40°38' W 074°08'0 0.0
2016-Jul-20 13:33N 40°38' W 074°08'0 0.0
2016-Jul-20 12:33N 40°38' W 074°08'2 2.4
2016-Jul-20 11:33N 40°39' W 074°05'1 1.3
2016-Jul-20 10:33N 40°38' W 074°03'3 3.4
2016-Jul-20 09:34N 40°38' W 074°08'0 0.0
2016-Jul-20 08:33N 40°38' W 074°08'0 0.0
2016-Jul-20 07:33N 40°38' W 074°08'0 0.0
2016-Jul-20 06:34N 40°38' W 074°08'0 0.0
2016-Jul-20 05:33N 40°38' W 074°08'2 2.0
2016-Jul-20 04:33N 40°40' W 074°08'1 0.9
2016-Jul-20 03:33N 40°41' W 074°09'2 2.5
2016-Jul-20 02:33N 40°39' W 074°09'1 0.8
2016-Jul-20 01:33N 40°38' W 074°08'0 0.0
2016-Jul-20 00:33N 40°38' W 074°08'0 0.0
2016-Jul-19 23:32N 40°38' W 074°08'0 0.2
2016-Jul-19 22:33N 40°39' W 074°08'3 2.7
2016-Jul-19 21:34N 40°41' W 074°09'0 0.1
2016-Jul-19 20:33N 40°41' W 074°09'1 1.1
2016-Jul-19 19:33N 40°40' W 074°08'2 1.7
2016-Jul-19 18:32N 40°38' W 074°08'0 0.0
2016-Jul-19 17:33N 40°38' W 074°08'0 0.0
2016-Jul-19 16:33N 40°38' W 074°08'0 0.0
2016-Jul-19 15:33N 40°38' W 074°08'4 4.5
2016-Jul-19 14:33N 40°40' W 074°02'2 2.4
2016-Jul-19 13:33N 40°42' W 074°02'6 6.0
2016-Jul-19 12:33N 40°48' W 073°59'0 0.2
2016-Jul-19 11:32N 40°48' W 073°59'0 0.2
2016-Jul-19 10:32N 40°48' W 073°59'0 0.0
2016-Jul-19 09:32N 40°48' W 073°59'0 0.0
2016-Jul-19 08:29N 40°48' W 073°59'0 0.0
2016-Jul-19 07:32N 40°48' W 073°59'6 2.1
2016-Jul-19 04:33N 40°42' W 074°02'6 6.3
2016-Jul-19 03:33N 40°39' W 074°09'3 2.4
2016-Jul-19 02:19N 40°38' W 074°12'4 4.6
2016-Jul-19 01:33N 40°38' W 074°08'0 0.0
2016-Jul-19 00:33N 40°38' W 074°08'1 0.7
2016-Jul-18 23:33N 40°39' W 074°07'3 3.1
2016-Jul-18 22:34N 40°39' W 074°03'4 4.0
2016-Jul-18 21:33N 40°39' W 074°08'0 0.3
2016-Jul-18 20:33N 40°38' W 074°08'3 1.6
2016-Jul-18 18:33N 40°38' W 074°12'6 5.9
2016-Jul-18 17:33N 40°39' W 074°04'3 2.6
2016-Jul-18 16:33N 40°38' W 074°08'0 0.0
2016-Jul-18 15:31N 40°38' W 074°08'0 0.0
2016-Jul-18 14:32N 40°38' W 074°08'4 3.6
2016-Jul-18 13:33N 40°42' W 074°09'1 0.8
2016-Jul-18 12:33N 40°41' W 074°08'3 2.9
2016-Jul-18 11:33N 40°39' W 074°06'5 4.7
2016-Jul-18 10:33N 40°41' W 074°01'3 2.9
2016-Jul-18 09:33N 40°39' W 074°03'4 3.7
2016-Jul-18 08:33N 40°38' W 074°08'3 3.4
2016-Jul-18 07:32N 40°38' W 074°12'5 5.0
2016-Jul-18 06:33N 40°39' W 074°06'3 3.0
2016-Jul-18 05:33N 40°40' W 074°02'0 0.0
2016-Jul-18 04:33N 40°40' W 074°02'0 0.0
2016-Jul-18 03:33N 40°40' W 074°02'0 0.0
2016-Jul-18 02:33N 40°40' W 074°02'0 0.0
2016-Jul-18 01:33N 40°40' W 074°02'9 4.2
2016-Jul-17 23:32N 40°36' W 074°12'4 4.0
2016-Jul-17 22:33N 40°39' W 074°08'1 0.2
2016-Jul-17 19:26N 40°38' W 074°08'0 0.0
2016-Jul-17 18:29N 40°38' W 074°08'0 0.0
2016-Jul-17 17:32N 40°38' W 074°08'3 3.2
2016-Jul-17 16:33N 40°38' W 074°04'3 2.4
2016-Jul-17 15:14N 40°38' W 074°08'0 0.0
2016-Jul-17 14:30N 40°38' W 074°08'0 0.0
2016-Jul-17 13:17N 40°38' W 074°08'0 0.0
2016-Jul-17 12:20N 40°38' W 074°08'0 0.0
2016-Jul-17 11:17N 40°38' W 074°08'0 0.0
2016-Jul-17 10:33N 40°38' W 074°08'0 0.0
2016-Jul-17 08:23N 40°38' W 074°08'0 0.0
2016-Jul-17 07:33N 40°38' W 074°08'0 0.0
2016-Jul-17 06:33N 40°38' W 074°08'0 0.0
2016-Jul-17 04:29N 40°38' W 074°08'0 0.0
2016-Jul-17 03:33N 40°38' W 074°08'4 4.4
2016-Jul-17 02:33N 40°40' W 074°02'3 2.9
2016-Jul-17 01:34N 40°42' W 074°00'8 0.8
2016-Jul-16 15:06N 40°48' W 073°53'4 7.1
2016-Jul-16 14:33N 40°46' W 073°57'7 7.0
2016-Jul-16 13:33N 40°40' W 074°02'  

Dump ship's entire track history